sensor_id;sensor_type;location;lat;lon;timestamp;temperature;humidity
65036;DHT22;51603;49.300;8.880;2024-03-08T00:02:14;4.10;99.90
65036;DHT22;51603;49.300;8.880;2024-03-08T00:04:39;4.00;99.90
65036;DHT22;51603;49.300;8.880;2024-03-08T00:07:05;4.00;99.90
65036;DHT22;51603;49.300;8.880;2024-03-08T00:09:31;4.00;99.90
65036;DHT22;51603;49.300;8.880;2024-03-08T00:11:57;3.90;99.90
65036;DHT22;51603;49.300;8.880;2024-03-08T00:14:23;3.90;99.90
65036;DHT22;51603;49.300;8.880;2024-03-08T00:16:48;3.90;99.90
65036;DHT22;51603;49.300;8.880;2024-03-08T00:19:14;3.90;99.90
65036;DHT22;51603;49.300;8.880;2024-03-08T00:21:39;3.90;99.90
65036;DHT22;51603;49.300;8.880;2024-03-08T00:24:05;3.80;99.90
65036;DHT22;51603;49.300;8.880;2024-03-08T00:26:30;3.80;99.90
65036;DHT22;51603;49.300;8.880;2024-03-08T00:28:56;3.70;99.90
65036;DHT22;51603;49.300;8.880;2024-03-08T00:31:22;3.70;99.90
65036;DHT22;51603;49.300;8.880;2024-03-08T00:33:47;3.70;99.90
65036;DHT22;51603;49.300;8.880;2024-03-08T00:36:13;3.70;99.90
65036;DHT22;51603;49.300;8.880;2024-03-08T00:38:38;3.60;99.90
65036;DHT22;51603;49.300;8.880;2024-03-08T00:41:04;3.60;99.90
65036;DHT22;51603;49.300;8.880;2024-03-08T00:43:29;3.50;99.90
65036;DHT22;51603;49.300;8.880;2024-03-08T00:45:57;3.50;99.90
65036;DHT22;51603;49.300;8.880;2024-03-08T00:48:23;3.40;99.90
65036;DHT22;51603;49.300;8.880;2024-03-08T00:50:49;3.40;99.90
65036;DHT22;51603;49.300;8.880;2024-03-08T00:53:15;3.40;99.90
65036;DHT22;51603;49.300;8.880;2024-03-08T00:55:40;3.30;99.90
65036;DHT22;51603;49.300;8.880;2024-03-08T00:58:06;3.30;99.90
65036;DHT22;51603;49.300;8.880;2024-03-08T01:00:31;3.30;99.90
65036;DHT22;51603;49.300;8.880;2024-03-08T01:02:57;3.20;99.90
65036;DHT22;51603;49.300;8.880;2024-03-08T01:05:23;3.20;99.90
65036;DHT22;51603;49.300;8.880;2024-03-08T01:07:50;3.10;99.90
65036;DHT22;51603;49.300;8.880;2024-03-08T01:10:16;3.10;99.90
65036;DHT22;51603;49.300;8.880;2024-03-08T01:12:41;3.10;99.90
65036;DHT22;51603;49.300;8.880;2024-03-08T01:15:09;3.00;99.90
65036;DHT22;51603;49.300;8.880;2024-03-08T01:17:34;3.00;99.90
65036;DHT22;51603;49.300;8.880;2024-03-08T01:20:00;2.90;99.90
65036;DHT22;51603;49.300;8.880;2024-03-08T01:22:28;2.90;99.90
65036;DHT22;51603;49.300;8.880;2024-03-08T01:24:55;2.90;99.90
65036;DHT22;51603;49.300;8.880;2024-03-08T01:27:22;2.80;99.90
65036;DHT22;51603;49.300;8.880;2024-03-08T01:29:48;2.80;99.90
65036;DHT22;51603;49.300;8.880;2024-03-08T01:32:13;2.80;99.90
65036;DHT22;51603;49.300;8.880;2024-03-08T01:34:40;2.70;99.90
65036;DHT22;51603;49.300;8.880;2024-03-08T01:37:05;2.70;99.90
65036;DHT22;51603;49.300;8.880;2024-03-08T01:39:32;2.70;99.90
65036;DHT22;51603;49.300;8.880;2024-03-08T01:41:57;2.60;99.90
65036;DHT22;51603;49.300;8.880;2024-03-08T01:44:23;2.70;99.90
65036;DHT22;51603;49.300;8.880;2024-03-08T01:46:49;2.60;99.90
65036;DHT22;51603;49.300;8.880;2024-03-08T01:49:18;2.60;99.90
65036;DHT22;51603;49.300;8.880;2024-03-08T01:51:46;2.60;99.90
65036;DHT22;51603;49.300;8.880;2024-03-08T01:54:12;2.50;99.90
65036;DHT22;51603;49.300;8.880;2024-03-08T01:56:39;2.50;99.90
65036;DHT22;51603;49.300;8.880;2024-03-08T01:59:05;2.40;99.90
65036;DHT22;51603;49.300;8.880;2024-03-08T02:01:33;2.40;99.90
65036;DHT22;51603;49.300;8.880;2024-03-08T02:03:59;2.40;99.90
65036;DHT22;51603;49.300;8.880;2024-03-08T02:06:25;2.30;99.90
65036;DHT22;51603;49.300;8.880;2024-03-08T02:08:50;2.30;99.90
65036;DHT22;51603;49.300;8.880;2024-03-08T02:11:16;2.30;99.90
65036;DHT22;51603;49.300;8.880;2024-03-08T02:13:42;2.20;99.90
65036;DHT22;51603;49.300;8.880;2024-03-08T02:16:08;2.20;99.90
65036;DHT22;51603;49.300;8.880;2024-03-08T02:18:34;2.20;99.90
65036;DHT22;51603;49.300;8.880;2024-03-08T02:21:05;2.20;99.90
65036;DHT22;51603;49.300;8.880;2024-03-08T02:23:32;2.20;99.90
65036;DHT22;51603;49.300;8.880;2024-03-08T02:25:57;2.20;99.90
65036;DHT22;51603;49.300;8.880;2024-03-08T02:28:24;2.20;99.90
65036;DHT22;51603;49.300;8.880;2024-03-08T02:30:50;2.20;99.90
65036;DHT22;51603;49.300;8.880;2024-03-08T02:33:17;2.10;99.90
65036;DHT22;51603;49.300;8.880;2024-03-08T02:35:44;2.10;99.90
65036;DHT22;51603;49.300;8.880;2024-03-08T02:38:20;2.10;99.90
65036;DHT22;51603;49.300;8.880;2024-03-08T02:40:47;2.10;99.90
65036;DHT22;51603;49.300;8.880;2024-03-08T02:43:14;2.10;99.90
65036;DHT22;51603;49.300;8.880;2024-03-08T02:45:40;2.10;99.90
65036;DHT22;51603;49.300;8.880;2024-03-08T02:48:07;2.10;99.90
65036;DHT22;51603;49.300;8.880;2024-03-08T02:50:33;2.10;99.90
65036;DHT22;51603;49.300;8.880;2024-03-08T02:53:00;2.10;99.90
65036;DHT22;51603;49.300;8.880;2024-03-08T02:55:26;2.10;99.90
65036;DHT22;51603;49.300;8.880;2024-03-08T02:57:52;2.10;99.90
65036;DHT22;51603;49.300;8.880;2024-03-08T03:00:18;2.00;99.90
65036;DHT22;51603;49.300;8.880;2024-03-08T03:02:45;2.00;99.90
65036;DHT22;51603;49.300;8.880;2024-03-08T03:05:10;2.00;99.90
65036;DHT22;51603;49.300;8.880;2024-03-08T03:07:37;1.90;99.90
65036;DHT22;51603;49.300;8.880;2024-03-08T03:10:03;1.90;99.90
65036;DHT22;51603;49.300;8.880;2024-03-08T03:12:29;1.80;99.90
65036;DHT22;51603;49.300;8.880;2024-03-08T03:14:59;1.80;99.90
65036;DHT22;51603;49.300;8.880;2024-03-08T03:17:25;1.80;99.90
65036;DHT22;51603;49.300;8.880;2024-03-08T03:19:53;1.70;99.90
65036;DHT22;51603;49.300;8.880;2024-03-08T03:22:19;1.70;99.90
65036;DHT22;51603;49.300;8.880;2024-03-08T03:24:45;1.70;99.90
65036;DHT22;51603;49.300;8.880;2024-03-08T03:27:16;1.70;99.90
65036;DHT22;51603;49.300;8.880;2024-03-08T03:29:43;1.60;99.90
65036;DHT22;51603;49.300;8.880;2024-03-08T03:32:14;1.70;99.90
65036;DHT22;51603;49.300;8.880;2024-03-08T03:34:40;1.60;99.90
65036;DHT22;51603;49.300;8.880;2024-03-08T03:37:06;1.60;99.90
65036;DHT22;51603;49.300;8.880;2024-03-08T03:39:38;1.60;99.90
65036;DHT22;51603;49.300;8.880;2024-03-08T03:42:19;1.50;99.90
65036;DHT22;51603;49.300;8.880;2024-03-08T03:44:46;1.50;99.90
65036;DHT22;51603;49.300;8.880;2024-03-08T03:47:12;1.50;99.90
65036;DHT22;51603;49.300;8.880;2024-03-08T03:49:38;1.50;99.90
65036;DHT22;51603;49.300;8.880;2024-03-08T03:52:04;1.50;99.90
65036;DHT22;51603;49.300;8.880;2024-03-08T03:54:30;1.50;99.90
65036;DHT22;51603;49.300;8.880;2024-03-08T03:56:56;1.50;99.90
65036;DHT22;51603;49.300;8.880;2024-03-08T03:59:21;1.50;99.90
65036;DHT22;51603;49.300;8.880;2024-03-08T04:01:47;1.40;99.90
65036;DHT22;51603;49.300;8.880;2024-03-08T04:04:14;1.40;99.90
65036;DHT22;51603;49.300;8.880;2024-03-08T04:06:40;1.40;99.90
65036;DHT22;51603;49.300;8.880;2024-03-08T04:09:05;1.40;99.90
65036;DHT22;51603;49.300;8.880;2024-03-08T04:11:31;1.40;99.90
65036;DHT22;51603;49.300;8.880;2024-03-08T04:13:56;1.40;99.90
65036;DHT22;51603;49.300;8.880;2024-03-08T04:16:22;1.40;99.90
65036;DHT22;51603;49.300;8.880;2024-03-08T04:18:49;1.40;99.90
65036;DHT22;51603;49.300;8.880;2024-03-08T04:21:14;1.30;99.90
65036;DHT22;51603;49.300;8.880;2024-03-08T04:23:40;1.20;99.90
65036;DHT22;51603;49.300;8.880;2024-03-08T04:26:06;1.20;99.90
65036;DHT22;51603;49.300;8.880;2024-03-08T04:28:32;1.20;99.90
65036;DHT22;51603;49.300;8.880;2024-03-08T04:30:58;1.20;99.90
65036;DHT22;51603;49.300;8.880;2024-03-08T04:33:26;1.20;99.90
65036;DHT22;51603;49.300;8.880;2024-03-08T04:35:51;1.20;99.90
65036;DHT22;51603;49.300;8.880;2024-03-08T04:38:17;1.20;99.90
65036;DHT22;51603;49.300;8.880;2024-03-08T04:40:42;1.10;99.90
65036;DHT22;51603;49.300;8.880;2024-03-08T04:43:08;1.10;99.90
65036;DHT22;51603;49.300;8.880;2024-03-08T04:45:36;1.10;99.90
65036;DHT22;51603;49.300;8.880;2024-03-08T04:48:02;1.10;99.90
65036;DHT22;51603;49.300;8.880;2024-03-08T04:50:27;1.10;99.90
65036;DHT22;51603;49.300;8.880;2024-03-08T04:52:55;1.20;99.90
65036;DHT22;51603;49.300;8.880;2024-03-08T04:55:21;1.10;99.90
65036;DHT22;51603;49.300;8.880;2024-03-08T04:57:47;1.10;99.90
65036;DHT22;51603;49.300;8.880;2024-03-08T05:00:13;1.10;99.90
65036;DHT22;51603;49.300;8.880;2024-03-08T05:02:40;1.10;99.90
65036;DHT22;51603;49.300;8.880;2024-03-08T05:05:07;1.00;99.90
65036;DHT22;51603;49.300;8.880;2024-03-08T05:07:33;1.00;99.90
65036;DHT22;51603;49.300;8.880;2024-03-08T05:09:59;1.10;99.90
65036;DHT22;51603;49.300;8.880;2024-03-08T05:12:24;1.00;99.90
65036;DHT22;51603;49.300;8.880;2024-03-08T05:14:50;1.00;99.90
65036;DHT22;51603;49.300;8.880;2024-03-08T05:17:16;0.90;99.90
65036;DHT22;51603;49.300;8.880;2024-03-08T05:19:44;0.90;99.90
65036;DHT22;51603;49.300;8.880;2024-03-08T05:22:10;0.90;99.90
65036;DHT22;51603;49.300;8.880;2024-03-08T05:24:35;0.90;99.90
65036;DHT22;51603;49.300;8.880;2024-03-08T05:27:01;0.90;99.90
65036;DHT22;51603;49.300;8.880;2024-03-08T05:29:29;0.90;99.90
65036;DHT22;51603;49.300;8.880;2024-03-08T05:31:55;0.90;99.90
65036;DHT22;51603;49.300;8.880;2024-03-08T05:34:22;0.90;99.90
65036;DHT22;51603;49.300;8.880;2024-03-08T05:36:48;0.90;99.90
65036;DHT22;51603;49.300;8.880;2024-03-08T05:39:16;0.90;99.90
65036;DHT22;51603;49.300;8.880;2024-03-08T05:41:43;0.90;99.90
65036;DHT22;51603;49.300;8.880;2024-03-08T05:44:09;0.80;99.90
65036;DHT22;51603;49.300;8.880;2024-03-08T05:46:36;0.80;99.90
65036;DHT22;51603;49.300;8.880;2024-03-08T05:49:03;0.80;99.90
65036;DHT22;51603;49.300;8.880;2024-03-08T05:51:31;0.80;99.90
65036;DHT22;51603;49.300;8.880;2024-03-08T05:53:57;0.80;99.90
65036;DHT22;51603;49.300;8.880;2024-03-08T05:56:23;0.80;99.90
65036;DHT22;51603;49.300;8.880;2024-03-08T05:58:49;0.80;99.90
65036;DHT22;51603;49.300;8.880;2024-03-08T06:01:15;0.80;99.90
65036;DHT22;51603;49.300;8.880;2024-03-08T06:03:41;0.90;99.90
65036;DHT22;51603;49.300;8.880;2024-03-08T06:06:12;0.90;99.90
65036;DHT22;51603;49.300;8.880;2024-03-08T06:08:37;0.90;99.90
65036;DHT22;51603;49.300;8.880;2024-03-08T06:11:03;0.90;99.90
65036;DHT22;51603;49.300;8.880;2024-03-08T06:13:28;1.00;99.90
65036;DHT22;51603;49.300;8.880;2024-03-08T06:15:56;1.00;99.90
65036;DHT22;51603;49.300;8.880;2024-03-08T06:18:22;1.00;99.90
65036;DHT22;51603;49.300;8.880;2024-03-08T06:20:47;1.00;99.90
65036;DHT22;51603;49.300;8.880;2024-03-08T06:23:13;1.00;99.90
65036;DHT22;51603;49.300;8.880;2024-03-08T06:25:43;1.00;99.90
65036;DHT22;51603;49.300;8.880;2024-03-08T06:28:09;1.00;99.90
65036;DHT22;51603;49.300;8.880;2024-03-08T06:30:35;1.00;99.90
65036;DHT22;51603;49.300;8.880;2024-03-08T06:33:00;1.10;99.90
65036;DHT22;51603;49.300;8.880;2024-03-08T06:35:26;1.10;99.90
65036;DHT22;51603;49.300;8.880;2024-03-08T06:37:51;1.10;99.90
65036;DHT22;51603;49.300;8.880;2024-03-08T06:40:17;1.10;99.90
65036;DHT22;51603;49.300;8.880;2024-03-08T06:42:43;1.20;99.90
65036;DHT22;51603;49.300;8.880;2024-03-08T06:45:09;1.20;99.90
65036;DHT22;51603;49.300;8.880;2024-03-08T06:47:35;1.20;99.90
65036;DHT22;51603;49.300;8.880;2024-03-08T06:50:01;1.20;99.90
65036;DHT22;51603;49.300;8.880;2024-03-08T06:52:27;1.30;99.90
65036;DHT22;51603;49.300;8.880;2024-03-08T06:54:52;1.40;99.90
65036;DHT22;51603;49.300;8.880;2024-03-08T06:57:18;1.40;99.90
65036;DHT22;51603;49.300;8.880;2024-03-08T06:59:47;1.40;99.90
65036;DHT22;51603;49.300;8.880;2024-03-08T07:02:13;1.50;99.90
65036;DHT22;51603;49.300;8.880;2024-03-08T07:04:38;1.60;99.90
65036;DHT22;51603;49.300;8.880;2024-03-08T07:07:05;1.70;99.90
65036;DHT22;51603;49.300;8.880;2024-03-08T07:09:30;1.70;99.90
65036;DHT22;51603;49.300;8.880;2024-03-08T07:11:56;1.80;99.90
65036;DHT22;51603;49.300;8.880;2024-03-08T07:14:24;1.80;99.90
65036;DHT22;51603;49.300;8.880;2024-03-08T07:16:50;1.90;99.90
65036;DHT22;51603;49.300;8.880;2024-03-08T07:19:17;2.10;99.90
65036;DHT22;51603;49.300;8.880;2024-03-08T07:21:43;2.00;99.90
65036;DHT22;51603;49.300;8.880;2024-03-08T07:24:10;2.10;99.90
65036;DHT22;51603;49.300;8.880;2024-03-08T07:26:53;2.20;99.90
65036;DHT22;51603;49.300;8.880;2024-03-08T07:29:19;2.30;99.90
65036;DHT22;51603;49.300;8.880;2024-03-08T07:31:45;2.40;99.90
65036;DHT22;51603;49.300;8.880;2024-03-08T07:34:16;2.40;99.90
65036;DHT22;51603;49.300;8.880;2024-03-08T07:36:42;2.50;99.90
65036;DHT22;51603;49.300;8.880;2024-03-08T07:39:08;2.60;99.90
65036;DHT22;51603;49.300;8.880;2024-03-08T07:41:37;2.70;99.90
65036;DHT22;51603;49.300;8.880;2024-03-08T07:44:06;2.80;99.90
65036;DHT22;51603;49.300;8.880;2024-03-08T07:46:31;2.80;99.90
65036;DHT22;51603;49.300;8.880;2024-03-08T07:48:59;2.90;99.90
65036;DHT22;51603;49.300;8.880;2024-03-08T07:51:25;3.00;99.90
65036;DHT22;51603;49.300;8.880;2024-03-08T07:53:50;3.10;99.90
65036;DHT22;51603;49.300;8.880;2024-03-08T07:56:16;3.30;99.90
65036;DHT22;51603;49.300;8.880;2024-03-08T07:58:44;3.30;99.90
65036;DHT22;51603;49.300;8.880;2024-03-08T08:01:19;3.40;99.90
65036;DHT22;51603;49.300;8.880;2024-03-08T08:03:45;3.60;99.90
65036;DHT22;51603;49.300;8.880;2024-03-08T08:06:11;3.70;99.90
65036;DHT22;51603;49.300;8.880;2024-03-08T08:08:41;3.80;99.90
65036;DHT22;51603;49.300;8.880;2024-03-08T08:11:07;3.90;99.90
65036;DHT22;51603;49.300;8.880;2024-03-08T08:13:34;3.90;99.90
65036;DHT22;51603;49.300;8.880;2024-03-08T08:16:00;4.00;99.90
65036;DHT22;51603;49.300;8.880;2024-03-08T08:18:25;4.00;99.90
65036;DHT22;51603;49.300;8.880;2024-03-08T08:20:51;4.10;99.90
65036;DHT22;51603;49.300;8.880;2024-03-08T08:23:18;4.20;99.90
65036;DHT22;51603;49.300;8.880;2024-03-08T08:25:45;4.20;99.90
65036;DHT22;51603;49.300;8.880;2024-03-08T08:28:10;4.40;99.90
65036;DHT22;51603;49.300;8.880;2024-03-08T08:30:38;4.30;99.90
65036;DHT22;51603;49.300;8.880;2024-03-08T08:33:03;4.40;99.90
65036;DHT22;51603;49.300;8.880;2024-03-08T08:35:31;4.30;99.90
65036;DHT22;51603;49.300;8.880;2024-03-08T08:37:56;4.40;99.90
65036;DHT22;51603;49.300;8.880;2024-03-08T08:40:24;4.40;99.90
65036;DHT22;51603;49.300;8.880;2024-03-08T08:42:51;4.30;99.90
65036;DHT22;51603;49.300;8.880;2024-03-08T08:45:18;4.30;99.90
65036;DHT22;51603;49.300;8.880;2024-03-08T08:47:44;4.30;99.90
65036;DHT22;51603;49.300;8.880;2024-03-08T08:50:10;4.30;99.90
65036;DHT22;51603;49.300;8.880;2024-03-08T08:52:38;4.30;99.90
65036;DHT22;51603;49.300;8.880;2024-03-08T08:55:04;4.30;99.90
65036;DHT22;51603;49.300;8.880;2024-03-08T08:57:32;4.40;99.90
65036;DHT22;51603;49.300;8.880;2024-03-08T08:59:58;4.50;99.90
65036;DHT22;51603;49.300;8.880;2024-03-08T09:02:24;4.50;99.90
65036;DHT22;51603;49.300;8.880;2024-03-08T09:04:51;4.60;99.90
65036;DHT22;51603;49.300;8.880;2024-03-08T09:07:16;4.60;99.90
65036;DHT22;51603;49.300;8.880;2024-03-08T09:09:44;4.70;99.90
65036;DHT22;51603;49.300;8.880;2024-03-08T09:12:10;4.60;99.90
65036;DHT22;51603;49.300;8.880;2024-03-08T09:14:39;4.60;99.90
65036;DHT22;51603;49.300;8.880;2024-03-08T09:17:05;4.60;99.90
65036;DHT22;51603;49.300;8.880;2024-03-08T09:19:34;4.60;99.90
65036;DHT22;51603;49.300;8.880;2024-03-08T09:21:59;4.70;99.90
65036;DHT22;51603;49.300;8.880;2024-03-08T09:24:25;4.70;99.90
65036;DHT22;51603;49.300;8.880;2024-03-08T09:26:51;4.80;99.90
65036;DHT22;51603;49.300;8.880;2024-03-08T09:29:17;4.70;99.90
65036;DHT22;51603;49.300;8.880;2024-03-08T09:31:43;4.70;99.90
65036;DHT22;51603;49.300;8.880;2024-03-08T09:34:08;4.70;99.90
65036;DHT22;51603;49.300;8.880;2024-03-08T09:36:34;4.80;99.90
65036;DHT22;51603;49.300;8.880;2024-03-08T09:39:00;4.80;99.90
65036;DHT22;51603;49.300;8.880;2024-03-08T09:41:26;4.90;99.90
65036;DHT22;51603;49.300;8.880;2024-03-08T09:43:51;4.90;99.90
65036;DHT22;51603;49.300;8.880;2024-03-08T09:46:19;4.90;99.90
65036;DHT22;51603;49.300;8.880;2024-03-08T09:48:45;5.00;99.90
65036;DHT22;51603;49.300;8.880;2024-03-08T09:51:12;5.20;99.90
65036;DHT22;51603;49.300;8.880;2024-03-08T09:53:41;5.20;99.90
65036;DHT22;51603;49.300;8.880;2024-03-08T09:56:08;5.20;99.90
65036;DHT22;51603;49.300;8.880;2024-03-08T09:58:33;5.20;99.90
65036;DHT22;51603;49.300;8.880;2024-03-08T10:00:59;5.30;99.90
65036;DHT22;51603;49.300;8.880;2024-03-08T10:03:30;5.20;99.90
65036;DHT22;51603;49.300;8.880;2024-03-08T10:05:57;5.20;99.90
65036;DHT22;51603;49.300;8.880;2024-03-08T10:08:29;5.30;99.90
65036;DHT22;51603;49.300;8.880;2024-03-08T10:10:55;5.40;99.90
65036;DHT22;51603;49.300;8.880;2024-03-08T10:13:22;5.40;99.90
65036;DHT22;51603;49.300;8.880;2024-03-08T10:15:48;5.50;99.90
65036;DHT22;51603;49.300;8.880;2024-03-08T10:18:13;5.50;99.90
65036;DHT22;51603;49.300;8.880;2024-03-08T10:20:39;5.60;99.90
65036;DHT22;51603;49.300;8.880;2024-03-08T10:23:04;5.60;99.90
65036;DHT22;51603;49.300;8.880;2024-03-08T10:25:34;5.60;99.90
65036;DHT22;51603;49.300;8.880;2024-03-08T10:27:59;5.70;99.90
65036;DHT22;51603;49.300;8.880;2024-03-08T10:30:25;5.80;99.90
65036;DHT22;51603;49.300;8.880;2024-03-08T10:32:50;5.90;99.90
65036;DHT22;51603;49.300;8.880;2024-03-08T10:35:17;5.90;99.90
65036;DHT22;51603;49.300;8.880;2024-03-08T10:37:48;6.00;99.90
65036;DHT22;51603;49.300;8.880;2024-03-08T10:40:19;6.10;99.90
65036;DHT22;51603;49.300;8.880;2024-03-08T10:42:56;6.10;99.90
65036;DHT22;51603;49.300;8.880;2024-03-08T10:45:37;6.20;99.90
65036;DHT22;51603;49.300;8.880;2024-03-08T10:48:22;6.20;99.90
65036;DHT22;51603;49.300;8.880;2024-03-08T10:50:53;6.30;99.90
65036;DHT22;51603;49.300;8.880;2024-03-08T10:53:19;6.40;99.90
65036;DHT22;51603;49.300;8.880;2024-03-08T10:55:49;6.50;99.90
65036;DHT22;51603;49.300;8.880;2024-03-08T10:58:15;6.60;99.90
65036;DHT22;51603;49.300;8.880;2024-03-08T11:00:41;6.80;99.90
65036;DHT22;51603;49.300;8.880;2024-03-08T11:03:07;6.80;99.90
65036;DHT22;51603;49.300;8.880;2024-03-08T11:05:54;6.90;99.90
65036;DHT22;51603;49.300;8.880;2024-03-08T11:08:20;7.00;99.90
65036;DHT22;51603;49.300;8.880;2024-03-08T11:10:52;7.00;99.90
65036;DHT22;51603;49.300;8.880;2024-03-08T11:13:35;7.10;99.90
65036;DHT22;51603;49.300;8.880;2024-03-08T11:16:02;7.10;99.90
65036;DHT22;51603;49.300;8.880;2024-03-08T11:18:32;7.20;99.90
65036;DHT22;51603;49.300;8.880;2024-03-08T11:21:02;7.20;99.90
65036;DHT22;51603;49.300;8.880;2024-03-08T11:23:32;7.20;99.90
65036;DHT22;51603;49.300;8.880;2024-03-08T11:25:59;7.20;99.90
65036;DHT22;51603;49.300;8.880;2024-03-08T11:28:24;7.30;99.90
65036;DHT22;51603;49.300;8.880;2024-03-08T11:33:27;7.80;99.90
65036;DHT22;51603;49.300;8.880;2024-03-08T11:38:28;8.00;99.90
65036;DHT22;51603;49.300;8.880;2024-03-08T11:40:57;8.00;99.90
65036;DHT22;51603;49.300;8.880;2024-03-08T11:43:22;8.20;99.90
65036;DHT22;51603;49.300;8.880;2024-03-08T11:45:48;8.50;99.90
65036;DHT22;51603;49.300;8.880;2024-03-08T11:48:13;8.70;99.50
65036;DHT22;51603;49.300;8.880;2024-03-08T11:50:39;8.80;98.70
65036;DHT22;51603;49.300;8.880;2024-03-08T11:53:05;8.90;98.70
65036;DHT22;51603;49.300;8.880;2024-03-08T11:55:32;9.00;98.80
65036;DHT22;51603;49.300;8.880;2024-03-08T11:58:05;9.10;98.00
65036;DHT22;51603;49.300;8.880;2024-03-08T12:00:33;8.80;97.80
65036;DHT22;51603;49.300;8.880;2024-03-08T12:03:04;8.90;99.30
65036;DHT22;51603;49.300;8.880;2024-03-08T12:05:30;9.00;98.80
65036;DHT22;51603;49.300;8.880;2024-03-08T12:08:00;9.40;98.40
65036;DHT22;51603;49.300;8.880;2024-03-08T12:10:25;9.70;97.60
65036;DHT22;51603;49.300;8.880;2024-03-08T12:12:56;9.80;98.10
65036;DHT22;51603;49.300;8.880;2024-03-08T12:15:25;10.00;95.90
65036;DHT22;51603;49.300;8.880;2024-03-08T12:17:52;10.20;96.10
65036;DHT22;51603;49.300;8.880;2024-03-08T12:20:26;10.30;95.20
65036;DHT22;51603;49.300;8.880;2024-03-08T12:22:54;10.40;95.00
65036;DHT22;51603;49.300;8.880;2024-03-08T12:25:26;10.50;95.10
65036;DHT22;51603;49.300;8.880;2024-03-08T12:27:52;10.70;94.10
65036;DHT22;51603;49.300;8.880;2024-03-08T12:30:25;10.70;94.00
65036;DHT22;51603;49.300;8.880;2024-03-08T12:32:57;10.80;93.60
65036;DHT22;51603;49.300;8.880;2024-03-08T12:35:24;10.70;93.10
65036;DHT22;51603;49.300;8.880;2024-03-08T12:37:52;10.80;94.20
65036;DHT22;51603;49.300;8.880;2024-03-08T12:40:19;11.00;94.50
65036;DHT22;51603;49.300;8.880;2024-03-08T12:42:45;11.20;93.00
65036;DHT22;51603;49.300;8.880;2024-03-08T12:45:13;11.30;93.60
65036;DHT22;51603;49.300;8.880;2024-03-08T12:47:39;11.30;92.00
65036;DHT22;51603;49.300;8.880;2024-03-08T12:50:08;11.40;92.10
65036;DHT22;51603;49.300;8.880;2024-03-08T12:52:34;11.30;91.70
65036;DHT22;51603;49.300;8.880;2024-03-08T12:55:00;11.40;91.50
65036;DHT22;51603;49.300;8.880;2024-03-08T12:57:32;11.60;92.00
65036;DHT22;51603;49.300;8.880;2024-03-08T12:59:59;11.60;91.30
65036;DHT22;51603;49.300;8.880;2024-03-08T13:02:25;11.60;91.30
65036;DHT22;51603;49.300;8.880;2024-03-08T13:04:51;11.80;91.60
65036;DHT22;51603;49.300;8.880;2024-03-08T13:07:25;12.00;90.80
65036;DHT22;51603;49.300;8.880;2024-03-08T13:09:55;12.00;89.90
65036;DHT22;51603;49.300;8.880;2024-03-08T13:12:23;12.20;89.40
65036;DHT22;51603;49.300;8.880;2024-03-08T13:14:49;12.10;88.10
65036;DHT22;51603;49.300;8.880;2024-03-08T13:17:15;11.90;88.10
65036;DHT22;51603;49.300;8.880;2024-03-08T13:19:41;12.00;89.50
65036;DHT22;51603;49.300;8.880;2024-03-08T13:22:10;12.00;86.60
65036;DHT22;51603;49.300;8.880;2024-03-08T13:24:41;12.10;87.70
65036;DHT22;51603;49.300;8.880;2024-03-08T13:27:08;12.20;87.90
65036;DHT22;51603;49.300;8.880;2024-03-08T13:29:50;12.30;86.10
65036;DHT22;51603;49.300;8.880;2024-03-08T13:32:16;12.40;85.00
65036;DHT22;51603;49.300;8.880;2024-03-08T13:34:43;12.40;85.80
65036;DHT22;51603;49.300;8.880;2024-03-08T13:37:10;12.50;84.40
65036;DHT22;51603;49.300;8.880;2024-03-08T13:39:37;12.60;84.10
65036;DHT22;51603;49.300;8.880;2024-03-08T13:42:15;12.70;85.90
65036;DHT22;51603;49.300;8.880;2024-03-08T13:44:48;12.80;84.60
65036;DHT22;51603;49.300;8.880;2024-03-08T13:47:17;12.70;83.30
65036;DHT22;51603;49.300;8.880;2024-03-08T13:49:43;12.70;84.50
65036;DHT22;51603;49.300;8.880;2024-03-08T13:52:09;12.80;83.90
65036;DHT22;51603;49.300;8.880;2024-03-08T13:54:36;12.80;81.30
65036;DHT22;51603;49.300;8.880;2024-03-08T13:57:01;12.90;82.30
65036;DHT22;51603;49.300;8.880;2024-03-08T13:59:33;12.90;81.30
65036;DHT22;51603;49.300;8.880;2024-03-08T14:02:00;12.90;82.00
65036;DHT22;51603;49.300;8.880;2024-03-08T14:04:30;13.10;83.90
65036;DHT22;51603;49.300;8.880;2024-03-08T14:06:56;13.20;81.40
65036;DHT22;51603;49.300;8.880;2024-03-08T14:09:25;13.20;79.80
65036;DHT22;51603;49.300;8.880;2024-03-08T14:11:51;13.10;79.00
65036;DHT22;51603;49.300;8.880;2024-03-08T14:14:20;13.20;80.30
65036;DHT22;51603;49.300;8.880;2024-03-08T14:16:48;13.30;80.20
65036;DHT22;51603;49.300;8.880;2024-03-08T14:19:14;13.50;79.80
65036;DHT22;51603;49.300;8.880;2024-03-08T14:21:40;13.50;76.70
65036;DHT22;51603;49.300;8.880;2024-03-08T14:24:07;13.20;77.50
65036;DHT22;51603;49.300;8.880;2024-03-08T14:26:33;13.10;77.30
65036;DHT22;51603;49.300;8.880;2024-03-08T14:28:59;13.10;79.70
65036;DHT22;51603;49.300;8.880;2024-03-08T14:31:25;13.20;78.70
65036;DHT22;51603;49.300;8.880;2024-03-08T14:33:51;13.20;78.10
65036;DHT22;51603;49.300;8.880;2024-03-08T14:36:18;13.20;79.50
65036;DHT22;51603;49.300;8.880;2024-03-08T14:38:46;13.20;76.80
65036;DHT22;51603;49.300;8.880;2024-03-08T14:41:12;13.20;75.90
65036;DHT22;51603;49.300;8.880;2024-03-08T14:43:42;13.10;77.30
65036;DHT22;51603;49.300;8.880;2024-03-08T14:46:13;13.20;77.60
65036;DHT22;51603;49.300;8.880;2024-03-08T14:48:49;13.20;75.70
65036;DHT22;51603;49.300;8.880;2024-03-08T14:51:20;13.20;76.20
65036;DHT22;51603;49.300;8.880;2024-03-08T14:53:53;13.20;76.40
65036;DHT22;51603;49.300;8.880;2024-03-08T14:56:22;13.30;76.20
65036;DHT22;51603;49.300;8.880;2024-03-08T14:58:49;13.30;74.70
65036;DHT22;51603;49.300;8.880;2024-03-08T15:01:18;13.40;75.50
65036;DHT22;51603;49.300;8.880;2024-03-08T15:03:47;13.30;73.70
65036;DHT22;51603;49.300;8.880;2024-03-08T15:06:13;13.30;74.10
65036;DHT22;51603;49.300;8.880;2024-03-08T15:08:42;13.20;75.70
65036;DHT22;51603;49.300;8.880;2024-03-08T15:11:08;13.00;74.80
65036;DHT22;51603;49.300;8.880;2024-03-08T15:13:34;13.10;75.50
65036;DHT22;51603;49.300;8.880;2024-03-08T15:16:07;13.10;74.00
65036;DHT22;51603;49.300;8.880;2024-03-08T15:18:34;13.10;74.50
65036;DHT22;51603;49.300;8.880;2024-03-08T15:21:00;13.10;75.30
65036;DHT22;51603;49.300;8.880;2024-03-08T15:23:26;13.20;74.60
65036;DHT22;51603;49.300;8.880;2024-03-08T15:25:51;13.20;74.10
65036;DHT22;51603;49.300;8.880;2024-03-08T15:28:20;13.10;75.10
65036;DHT22;51603;49.300;8.880;2024-03-08T15:30:52;13.10;74.60
65036;DHT22;51603;49.300;8.880;2024-03-08T15:33:21;13.20;75.80
65036;DHT22;51603;49.300;8.880;2024-03-08T15:35:52;13.10;73.60
65036;DHT22;51603;49.300;8.880;2024-03-08T15:38:25;13.10;75.20
65036;DHT22;51603;49.300;8.880;2024-03-08T15:40:56;13.20;75.90
65036;DHT22;51603;49.300;8.880;2024-03-08T15:43:22;13.10;73.90
65036;DHT22;51603;49.300;8.880;2024-03-08T15:45:48;13.00;73.70
65036;DHT22;51603;49.300;8.880;2024-03-08T15:48:13;13.00;74.30